createdAt,value
2018-02-13T00:00:01.054Z,1009.08
2018-02-13T00:00:27.411Z,1009.08
2018-02-13T00:00:53.600Z,1009.09
2018-02-13T00:01:20.180Z,1009.06
2018-02-13T00:01:46.246Z,1009.06
2018-02-13T00:02:12.702Z,1009.07
2018-02-13T00:02:38.809Z,1009.03
2018-02-13T00:03:04.965Z,1009.07
2018-02-13T00:03:31.058Z,1009.07
2018-02-13T00:03:57.204Z,1009.05
2018-02-13T00:04:23.367Z,1009.06
2018-02-13T00:04:49.669Z,1009.1
2018-02-13T00:05:15.731Z,1009.06
2018-02-13T00:05:42.093Z,1009.02
2018-02-13T00:06:08.643Z,1009.03
2018-02-13T00:06:34.795Z,1009.01
2018-02-13T00:07:01.005Z,1009.03
2018-02-13T00:07:27.077Z,1009.07
2018-02-13T00:07:53.194Z,1009.01
2018-02-13T00:08:19.321Z,1009.03
2018-02-13T00:08:45.515Z,1009.02
2018-02-13T00:09:11.559Z,1009.01
2018-02-13T00:09:37.756Z,1009
2018-02-13T00:10:03.917Z,1009.01
2018-02-13T00:10:30.020Z,1009.05
2018-02-13T00:10:56.112Z,1009.02
2018-02-13T00:11:22.217Z,1009.03
2018-02-13T00:11:48.311Z,1009.07
2018-02-13T00:12:14.415Z,1009.04
2018-02-13T00:12:40.532Z,1008.99
2018-02-13T00:13:06.633Z,1008.99
2018-02-13T00:13:32.729Z,1009.03
2018-02-13T00:13:58.836Z,1008.99
2018-02-13T00:14:24.930Z,1009.03
2018-02-13T00:14:51.033Z,1009.05
2018-02-13T00:15:17.132Z,1009.01
2018-02-13T00:15:43.250Z,1009.05
2018-02-13T00:16:09.351Z,1009.01
2018-02-13T00:16:35.446Z,1009.06
2018-02-13T00:17:01.540Z,1009.07
2018-02-13T00:17:27.658Z,1009.05
2018-02-13T00:17:53.758Z,1009.06
2018-02-13T00:18:19.862Z,1009
2018-02-13T00:18:45.964Z,1009.01
2018-02-13T00:19:12.059Z,1009.04
2018-02-13T00:19:38.160Z,1009.05
2018-02-13T00:20:04.257Z,1009.04
2018-02-13T00:20:30.353Z,1009.12
2018-02-13T00:20:56.453Z,1009.07
2018-02-13T00:21:22.553Z,1009.08
2018-02-13T00:21:48.649Z,1009.08
2018-02-13T00:22:14.752Z,1009.09
2018-02-13T00:22:40.848Z,1009.07
2018-02-13T00:23:06.951Z,1009.04
2018-02-13T00:23:33.045Z,1009.05
2018-02-13T00:23:59.145Z,1009.06
2018-02-13T00:24:25.267Z,1009
2018-02-13T00:24:51.379Z,1009.02
2018-02-13T00:25:17.484Z,1009.03
2018-02-13T00:25:43.586Z,1009.06
2018-02-13T00:26:09.682Z,1009.03
2018-02-13T00:26:35.784Z,1009.02
2018-02-13T00:27:01.877Z,1009.01
2018-02-13T00:27:27.980Z,1009.07
2018-02-13T00:27:54.075Z,1009.03
2018-02-13T00:28:20.177Z,1009.05
2018-02-13T00:28:46.282Z,1009.04
2018-02-13T00:29:12.371Z,1009.04
2018-02-13T00:29:38.476Z,1009.1
2018-02-13T00:30:04.576Z,1009.06
2018-02-13T00:30:30.698Z,1009.04
2018-02-13T00:30:56.785Z,1009.05
2018-02-13T00:31:22.888Z,1009.06
2018-02-13T00:31:48.988Z,1009.05
2018-02-13T00:32:15.093Z,1009.03
2018-02-13T00:32:41.193Z,1009.1
2018-02-13T00:33:07.309Z,1009.05
2018-02-13T00:33:33.410Z,1009.04
2018-02-13T00:33:59.509Z,1009.09
2018-02-13T00:34:25.625Z,1009.08
2018-02-13T00:34:51.738Z,1009.04
2018-02-13T00:35:17.840Z,1009.07
2018-02-13T00:35:43.933Z,1009.03
2018-02-13T00:36:10.033Z,1009.04
2018-02-13T00:36:36.132Z,1009.02
2018-02-13T00:37:02.224Z,1009.05
2018-02-13T00:37:28.328Z,1009.02
2018-02-13T00:37:54.428Z,1009.05
2018-02-13T00:38:20.544Z,1009.02
2018-02-13T00:38:46.647Z,1009
2018-02-13T00:39:12.749Z,1009.02
2018-02-13T00:39:38.855Z,1008.98
2018-02-13T00:40:04.948Z,1008.97
2018-02-13T00:40:31.048Z,1008.98
2018-02-13T00:40:57.146Z,1009
2018-02-13T00:41:23.252Z,1008.97
2018-02-13T00:41:49.349Z,1008.95
2018-02-13T00:42:15.452Z,1008.98
2018-02-13T00:42:41.548Z,1008.99
2018-02-13T00:43:07.645Z,1009.03
2018-02-13T00:43:33.750Z,1009.07
2018-02-13T00:43:59.845Z,1008.94
2018-02-13T00:44:25.966Z,1008.99
2018-02-13T00:44:52.066Z,1008.98
2018-02-13T00:45:18.177Z,1008.97
2018-02-13T00:45:44.280Z,1009
2018-02-13T00:46:10.373Z,1008.94
2018-02-13T00:46:36.472Z,1008.94
2018-02-13T00:47:02.571Z,1008.94
2018-02-13T00:47:28.673Z,1008.91
2018-02-13T00:47:54.770Z,1008.96
2018-02-13T00:48:20.867Z,1008.92
2018-02-13T00:48:46.961Z,1008.93
2018-02-13T00:49:13.060Z,1008.98
2018-02-13T00:49:39.162Z,1008.95
2018-02-13T00:50:05.276Z,1008.87
2018-02-13T00:50:31.376Z,1008.88
2018-02-13T00:50:57.476Z,1008.89
2018-02-13T00:51:23.578Z,1008.89
2018-02-13T00:51:49.672Z,1008.91
2018-02-13T00:52:15.775Z,1008.93
2018-02-13T00:52:41.886Z,1008.9
2018-02-13T00:53:07.975Z,1008.87
2018-02-13T00:53:34.072Z,1008.89
2018-02-13T00:54:00.177Z,1008.84
2018-02-13T00:54:26.290Z,1008.9
2018-02-13T00:54:52.392Z,1008.9
2018-02-13T00:55:18.495Z,1008.9
2018-02-13T00:55:44.594Z,1008.93
2018-02-13T00:56:10.700Z,1008.94
2018-02-13T00:56:36.792Z,1008.87
2018-02-13T00:57:02.893Z,1008.89
2018-02-13T00:57:29.004Z,1008.91
2018-02-13T00:57:55.104Z,1008.91
2018-02-13T00:58:21.217Z,1008.91
2018-02-13T00:58:47.320Z,1008.88
2018-02-13T00:59:13.436Z,1008.95
2018-02-13T00:59:39.517Z,1008.85
2018-02-13T01:00:05.621Z,1008.87
2018-02-13T01:00:31.722Z,1008.89
2018-02-13T01:00:57.818Z,1008.91
2018-02-13T01:01:23.938Z,1008.92
2018-02-13T01:01:50.034Z,1008.9
2018-02-13T01:02:16.132Z,1008.96
2018-02-13T01:02:42.243Z,1008.88
2018-02-13T01:03:08.337Z,1008.9
2018-02-13T01:03:34.440Z,1008.91
2018-02-13T01:04:00.539Z,1008.92
2018-02-13T01:04:26.639Z,1008.92
2018-02-13T01:04:52.740Z,1008.87
2018-02-13T01:05:18.835Z,1008.91
2018-02-13T01:05:44.934Z,1008.94
2018-02-13T01:06:11.048Z,1008.9
2018-02-13T01:06:37.151Z,1008.88
2018-02-13T01:07:03.271Z,1008.86
2018-02-13T01:07:29.365Z,1008.89
2018-02-13T01:07:55.470Z,1008.87
2018-02-13T01:08:21.565Z,1008.9
2018-02-13T01:08:47.664Z,1008.87
2018-02-13T01:09:13.781Z,1008.82
2018-02-13T01:09:39.883Z,1008.88
2018-02-13T01:10:05.980Z,1008.88
2018-02-13T01:10:32.075Z,1008.87
2018-02-13T01:10:58.173Z,1008.85
2018-02-13T01:11:24.271Z,1008.88
2018-02-13T01:11:50.364Z,1008.9
2018-02-13T01:12:16.489Z,1008.87
2018-02-13T01:12:42.587Z,1008.88
2018-02-13T01:13:08.690Z,1008.9
2018-02-13T01:13:34.796Z,1008.87
2018-02-13T01:14:00.887Z,1008.94
2018-02-13T01:14:26.990Z,1008.91
2018-02-13T01:14:53.101Z,1008.89
2018-02-13T01:15:19.202Z,1008.93
2018-02-13T01:15:45.317Z,1008.89
2018-02-13T01:16:11.414Z,1008.87
2018-02-13T01:16:37.519Z,1008.94
2018-02-13T01:17:03.614Z,1008.92
2018-02-13T01:17:29.719Z,1008.89
2018-02-13T01:17:55.815Z,1008.91
2018-02-13T01:18:21.917Z,1008.9
2018-02-13T01:18:48.014Z,1008.89
2018-02-13T01:19:14.116Z,1008.92
2018-02-13T01:19:40.216Z,1008.89
2018-02-13T01:20:06.312Z,1008.86
2018-02-13T01:20:32.417Z,1008.9
2018-02-13T01:20:58.513Z,1008.92
2018-02-13T01:21:24.617Z,1008.9
2018-02-13T01:21:50.716Z,1008.89
2018-02-13T01:22:16.833Z,1008.89
2018-02-13T01:22:42.946Z,1008.89
2018-02-13T01:23:09.045Z,1008.89
2018-02-13T01:23:35.146Z,1008.85
2018-02-13T01:24:01.250Z,1008.93
2018-02-13T01:24:27.346Z,1008.91
2018-02-13T01:24:53.450Z,1008.91
2018-02-13T01:25:19.545Z,1008.88
2018-02-13T01:25:45.639Z,1008.89
2018-02-13T01:26:11.746Z,1008.9
2018-02-13T01:26:37.845Z,1008.91
2018-02-13T01:27:03.950Z,1008.91
2018-02-13T01:27:30.066Z,1008.93
2018-02-13T01:27:56.161Z,1008.93
2018-02-13T01:28:22.261Z,1008.89
2018-02-13T01:28:48.363Z,1008.86
2018-02-13T01:29:14.460Z,1008.89
2018-02-13T01:29:40.556Z,1008.93
2018-02-13T01:30:06.654Z,1008.88
2018-02-13T01:30:32.769Z,1008.87
2018-02-13T01:30:58.864Z,1008.85
2018-02-13T01:31:24.965Z,1008.88
2018-02-13T01:31:51.061Z,1008.97
2018-02-13T01:32:17.169Z,1008.9
2018-02-13T01:32:43.265Z,1008.88
2018-02-13T01:33:09.370Z,1008.86
2018-02-13T01:33:35.466Z,1008.91
2018-02-13T01:34:01.567Z,1008.82
2018-02-13T01:34:27.669Z,1008.84
2018-02-13T01:34:53.761Z,1008.88
2018-02-13T01:35:19.860Z,1008.91
2018-02-13T01:35:45.957Z,1008.86
2018-02-13T01:36:12.055Z,1008.91
2018-02-13T01:36:38.152Z,1008.92
2018-02-13T01:37:04.249Z,1008.95
2018-02-13T01:37:30.349Z,1008.89
2018-02-13T01:37:56.455Z,1008.95
2018-02-13T01:38:22.550Z,1008.91
2018-02-13T01:38:48.654Z,1008.95
2018-02-13T01:39:14.753Z,1008.89
2018-02-13T01:39:40.848Z,1008.89
2018-02-13T01:40:06.948Z,1008.92
2018-02-13T01:40:33.052Z,1008.92
2018-02-13T01:40:59.146Z,1008.88
2018-02-13T01:41:25.251Z,1008.92
2018-02-13T01:41:51.345Z,1008.9
2018-02-13T01:42:17.460Z,1008.89
2018-02-13T01:42:43.564Z,1008.92
2018-02-13T01:43:09.660Z,1008.92
2018-02-13T01:43:35.760Z,1008.92
2018-02-13T01:44:01.860Z,1008.91
2018-02-13T01:44:27.955Z,1008.9
2018-02-13T01:44:54.067Z,1008.84
2018-02-13T01:45:20.172Z,1008.9
2018-02-13T01:45:46.265Z,1008.89
2018-02-13T01:46:12.366Z,1008.92
2018-02-13T01:46:38.469Z,1008.87
2018-02-13T01:47:04.568Z,1008.88
2018-02-13T01:47:30.662Z,1008.89
2018-02-13T01:47:56.781Z,1008.91
2018-02-13T01:48:22.880Z,1008.88
2018-02-13T01:48:48.973Z,1008.86
2018-02-13T01:49:15.073Z,1008.89
2018-02-13T01:49:41.172Z,1008.87
2018-02-13T01:50:07.266Z,1008.87
2018-02-13T01:50:33.367Z,1008.83
2018-02-13T01:50:59.478Z,1008.85
2018-02-13T01:51:25.571Z,1008.86
2018-02-13T01:51:51.671Z,1008.82
2018-02-13T01:52:17.781Z,1008.84
2018-02-13T01:52:43.878Z,1008.9
2018-02-13T01:53:09.988Z,1008.88
2018-02-13T01:53:36.079Z,1008.87
2018-02-13T01:54:02.182Z,1008.88
2018-02-13T01:54:28.280Z,1008.86
2018-02-13T01:54:54.380Z,1008.91
2018-02-13T01:55:20.483Z,1008.85
2018-02-13T01:55:46.574Z,1008.86
2018-02-13T01:56:12.691Z,1008.87
2018-02-13T01:56:38.794Z,1008.86
2018-02-13T01:57:04.897Z,1008.87
2018-02-13T01:57:30.989Z,1008.89
2018-02-13T01:57:57.089Z,1008.88
2018-02-13T01:58:23.186Z,1008.84
2018-02-13T01:58:49.293Z,1008.89
2018-02-13T01:59:15.416Z,1008.85
2018-02-13T01:59:41.513Z,1008.89
2018-02-13T02:00:07.616Z,1008.91
2018-02-13T02:00:33.710Z,1008.86
2018-02-13T02:00:59.812Z,1008.88
2018-02-13T02:01:25.908Z,1008.88
2018-02-13T02:01:52.028Z,1008.9
2018-02-13T02:02:18.129Z,1008.88
2018-02-13T02:02:44.221Z,1008.84
2018-02-13T02:03:10.317Z,1008.88
2018-02-13T02:03:36.421Z,1008.86
2018-02-13T02:04:02.515Z,1008.82
2018-02-13T02:04:28.627Z,1008.85
2018-02-13T02:04:54.725Z,1008.81
2018-02-13T02:05:20.827Z,1008.79
2018-02-13T02:05:46.923Z,1008.83
2018-02-13T02:06:13.026Z,1008.83
2018-02-13T02:06:39.194Z,1008.83
2018-02-13T02:07:05.240Z,1008.86
2018-02-13T02:07:31.339Z,1008.81
2018-02-13T02:07:57.434Z,1008.8
2018-02-13T02:08:23.534Z,1008.8
2018-02-13T02:08:49.636Z,1008.8
2018-02-13T02:09:15.734Z,1008.86
2018-02-13T02:09:41.829Z,1008.82
2018-02-13T02:10:07.931Z,1008.85
2018-02-13T02:10:34.029Z,1008.82
2018-02-13T02:11:00.128Z,1008.81
2018-02-13T02:11:26.222Z,1008.82
2018-02-13T02:11:52.334Z,1008.8
2018-02-13T02:12:18.428Z,1008.8
2018-02-13T02:12:44.531Z,1008.81
2018-02-13T02:13:10.626Z,1008.79
2018-02-13T02:13:36.733Z,1008.81
2018-02-13T02:14:02.842Z,1008.82
2018-02-13T02:14:28.981Z,1008.82
2018-02-13T02:14:55.035Z,1008.83
2018-02-13T02:15:21.138Z,1008.83
2018-02-13T02:15:47.238Z,1008.84
2018-02-13T02:16:13.363Z,1008.82
2018-02-13T02:16:39.456Z,1008.8
2018-02-13T02:17:05.550Z,1008.82
2018-02-13T02:17:31.648Z,1008.82
2018-02-13T02:17:57.748Z,1008.81
2018-02-13T02:18:23.857Z,1008.75
2018-02-13T02:18:49.957Z,1008.78
2018-02-13T02:19:16.060Z,1008.82
2018-02-13T02:19:42.163Z,1008.82
2018-02-13T02:20:08.255Z,1008.78
2018-02-13T02:20:34.354Z,1008.78
2018-02-13T02:21:00.467Z,1008.81
2018-02-13T02:21:26.558Z,1008.8
2018-02-13T02:21:52.656Z,1008.78
2018-02-13T02:22:18.761Z,1008.8
2018-02-13T02:22:44.855Z,1008.81
2018-02-13T02:23:10.960Z,1008.83
2018-02-13T02:23:37.055Z,1008.82
2018-02-13T02:24:03.151Z,1008.83
2018-02-13T02:24:29.273Z,1008.79
2018-02-13T02:24:55.373Z,1008.84
2018-02-13T02:25:21.471Z,1008.8
2018-02-13T02:25:47.570Z,1008.82
2018-02-13T02:26:13.671Z,1008.8
2018-02-13T02:26:39.769Z,1008.8
2018-02-13T02:27:05.871Z,1008.82
2018-02-13T02:27:31.972Z,1008.79
2018-02-13T02:27:58.069Z,1008.78
2018-02-13T02:28:24.162Z,1008.77
2018-02-13T02:28:50.281Z,1008.79
2018-02-13T02:29:16.384Z,1008.79
2018-02-13T02:29:42.481Z,1008.77
2018-02-13T02:30:08.601Z,1008.79
2018-02-13T02:30:34.696Z,1008.72
2018-02-13T02:31:00.816Z,1008.82
2018-02-13T02:31:26.913Z,1008.75
2018-02-13T02:31:53.009Z,1008.73
2018-02-13T02:32:19.112Z,1008.78
2018-02-13T02:32:45.211Z,1008.79
2018-02-13T02:33:11.308Z,1008.76
2018-02-13T02:33:37.403Z,1008.74
2018-02-13T02:34:03.513Z,1008.73
2018-02-13T02:34:29.646Z,1008.71
2018-02-13T02:34:55.742Z,1008.69
2018-02-13T02:35:21.840Z,1008.74
2018-02-13T02:35:47.943Z,1008.72
2018-02-13T02:36:14.055Z,1008.72
2018-02-13T02:36:40.157Z,1008.73
2018-02-13T02:37:06.248Z,1008.7
2018-02-13T02:37:32.350Z,1008.72
2018-02-13T02:37:58.449Z,1008.69
2018-02-13T02:38:24.541Z,1008.67
2018-02-13T02:38:50.643Z,1008.7
2018-02-13T02:39:16.740Z,1008.68
2018-02-13T02:39:42.840Z,1008.67
2018-02-13T02:40:08.932Z,1008.68
2018-02-13T02:40:35.033Z,1008.67
2018-02-13T02:41:01.138Z,1008.7
2018-02-13T02:41:27.242Z,1008.66
2018-02-13T02:41:53.334Z,1008.7
2018-02-13T02:42:19.437Z,1008.64
2018-02-13T02:42:45.538Z,1008.66
2018-02-13T02:43:11.638Z,1008.63
2018-02-13T02:43:37.741Z,1008.66
2018-02-13T02:44:03.836Z,1008.62
2018-02-13T02:44:29.930Z,1008.62
2018-02-13T02:44:56.032Z,1008.68
2018-02-13T02:45:22.132Z,1008.65
2018-02-13T02:45:48.224Z,1008.59
2018-02-13T02:46:14.382Z,1008.57
2018-02-13T02:46:40.429Z,1008.62
2018-02-13T02:47:06.522Z,1008.6
2018-02-13T02:47:32.620Z,1008.6
2018-02-13T02:47:58.724Z,1008.61
2018-02-13T02:48:24.822Z,1008.66
2018-02-13T02:48:50.931Z,1008.66
2018-02-13T02:49:17.026Z,1008.65
2018-02-13T02:49:43.139Z,1008.67
2018-02-13T02:50:09.236Z,1008.65
2018-02-13T02:50:35.356Z,1008.69
2018-02-13T02:51:01.454Z,1008.64
2018-02-13T02:51:27.557Z,1008.68
2018-02-13T02:51:53.651Z,1008.68
2018-02-13T02:52:19.752Z,1008.66
2018-02-13T02:52:45.854Z,1008.63
2018-02-13T02:53:11.981Z,1008.68
2018-02-13T02:53:38.082Z,1008.61
2018-02-13T02:54:04.185Z,1008.59
2018-02-13T02:54:30.286Z,1008.59
2018-02-13T02:54:56.381Z,1008.59
2018-02-13T02:55:22.483Z,1008.56
2018-02-13T02:55:48.582Z,1008.57
2018-02-13T02:56:14.681Z,1008.56
2018-02-13T02:56:40.780Z,1008.62
2018-02-13T02:57:06.881Z,1008.63
2018-02-13T02:57:32.981Z,1008.61
2018-02-13T02:57:59.078Z,1008.57
2018-02-13T02:58:25.173Z,1008.58
2018-02-13T02:58:51.274Z,1008.6
2018-02-13T02:59:17.372Z,1008.58
2018-02-13T02:59:43.471Z,1008.56
2018-02-13T03:00:09.576Z,1008.56
2018-02-13T03:00:35.680Z,1008.55
2018-02-13T03:01:01.775Z,1008.58
2018-02-13T03:01:27.878Z,1008.59
2018-02-13T03:01:53.971Z,1008.55
2018-02-13T03:02:20.103Z,1008.55
2018-02-13T03:02:46.211Z,1008.55
2018-02-13T03:03:12.338Z,1008.57
2018-02-13T03:03:38.493Z,1008.56
2018-02-13T03:04:04.540Z,1008.6
2018-02-13T03:04:30.643Z,1008.5
2018-02-13T03:04:56.742Z,1008.51
2018-02-13T03:05:22.845Z,1008.51
2018-02-13T03:05:48.941Z,1008.54
2018-02-13T03:06:15.055Z,1008.48
2018-02-13T03:06:41.157Z,1008.51
2018-02-13T03:07:07.251Z,1008.55
2018-02-13T03:07:33.350Z,1008.54
2018-02-13T03:07:59.458Z,1008.52
2018-02-13T03:08:25.555Z,1008.53
2018-02-13T03:08:51.649Z,1008.59
2018-02-13T03:09:17.744Z,1008.52
2018-02-13T03:09:43.852Z,1008.55
2018-02-13T03:10:10.000Z,1008.53
2018-02-13T03:10:36.098Z,1008.55
2018-02-13T03:11:02.192Z,1008.56
2018-02-13T03:11:28.294Z,1008.52
2018-02-13T03:11:54.391Z,1008.51
2018-02-13T03:12:20.492Z,1008.49
2018-02-13T03:12:46.588Z,1008.52
2018-02-13T03:13:12.701Z,1008.49
2018-02-13T03:13:38.805Z,1008.52
2018-02-13T03:14:04.920Z,1008.49
2018-02-13T03:14:31.034Z,1008.51
2018-02-13T03:14:57.127Z,1008.52
2018-02-13T03:15:23.231Z,1008.47
2018-02-13T03:15:49.326Z,1008.49
2018-02-13T03:16:15.421Z,1008.48
2018-02-13T03:16:41.527Z,1008.51
2018-02-13T03:17:07.621Z,1008.47
2018-02-13T03:17:33.727Z,1008.5
2018-02-13T03:17:59.834Z,1008.5
2018-02-13T03:18:25.924Z,1008.5
2018-02-13T03:18:52.029Z,1008.5
2018-02-13T03:19:18.123Z,1008.46
2018-02-13T03:19:44.220Z,1008.46
2018-02-13T03:20:10.316Z,1008.45
2018-02-13T03:20:36.412Z,1008.44
2018-02-13T03:21:02.515Z,1008.45
2018-02-13T03:21:28.615Z,1008.42
2018-02-13T03:21:54.709Z,1008.47
2018-02-13T03:22:20.807Z,1008.48
2018-02-13T03:22:46.913Z,1008.37
2018-02-13T03:23:13.004Z,1008.42
2018-02-13T03:23:39.102Z,1008.44
2018-02-13T03:24:05.208Z,1008.42
2018-02-13T03:24:31.306Z,1008.49
2018-02-13T03:24:57.408Z,1008.45
2018-02-13T03:25:23.504Z,1008.44
2018-02-13T03:25:49.598Z,1008.45
2018-02-13T03:26:15.707Z,1008.48
2018-02-13T03:26:41.821Z,1008.45
2018-02-13T03:27:07.923Z,1008.42
2018-02-13T03:27:34.016Z,1008.41
2018-02-13T03:28:00.118Z,1008.41
2018-02-13T03:28:26.218Z,1008.41
2018-02-13T03:28:52.311Z,1008.44
2018-02-13T03:29:18.416Z,1008.4
2018-02-13T03:29:44.513Z,1008.43
2018-02-13T03:30:10.611Z,1008.43
2018-02-13T03:30:36.745Z,1008.43
2018-02-13T03:31:02.841Z,1008.4
2018-02-13T03:31:28.957Z,1008.38
2018-02-13T03:31:55.047Z,1008.38
2018-02-13T03:32:21.157Z,1008.41
2018-02-13T03:32:47.261Z,1008.4
2018-02-13T03:33:13.356Z,1008.39
2018-02-13T03:33:39.457Z,1008.42
2018-02-13T03:34:05.555Z,1008.38
2018-02-13T03:34:31.657Z,1008.35
2018-02-13T03:34:57.754Z,1008.37
2018-02-13T03:35:23.866Z,1008.36
2018-02-13T03:35:49.971Z,1008.37
2018-02-13T03:36:16.065Z,1008.37
2018-02-13T03:36:42.171Z,1008.35
2018-02-13T03:37:08.284Z,1008.39
2018-02-13T03:37:34.381Z,1008.36
2018-02-13T03:38:00.486Z,1008.35
2018-02-13T03:38:26.581Z,1008.36
2018-02-13T03:38:52.681Z,1008.36
2018-02-13T03:39:18.782Z,1008.36
2018-02-13T03:39:44.882Z,1008.37
2018-02-13T03:40:10.976Z,1008.33
2018-02-13T03:40:37.078Z,1008.37
2018-02-13T03:41:03.173Z,1008.36
2018-02-13T03:41:29.269Z,1008.37
2018-02-13T03:41:55.389Z,1008.35
2018-02-13T03:42:21.484Z,1008.35
2018-02-13T03:42:47.585Z,1008.32
2018-02-13T03:43:13.687Z,1008.33
2018-02-13T03:43:39.779Z,1008.33
2018-02-13T03:44:05.878Z,1008.34
2018-02-13T03:44:31.982Z,1008.36
2018-02-13T03:44:58.077Z,1008.36
2018-02-13T03:45:24.176Z,1008.32
2018-02-13T03:45:50.281Z,1008.34
2018-02-13T03:46:16.405Z,1008.33
2018-02-13T03:46:42.499Z,1008.32
2018-02-13T03:47:08.636Z,1008.32
2018-02-13T03:47:34.694Z,1008.33
2018-02-13T03:48:00.793Z,1008.31
2018-02-13T03:48:26.903Z,1008.32
2018-02-13T03:48:52.995Z,1008.33
2018-02-13T03:49:19.099Z,1008.35
2018-02-13T03:49:45.199Z,1008.33
2018-02-13T03:50:11.295Z,1008.29
2018-02-13T03:50:37.398Z,1008.35
2018-02-13T03:51:03.495Z,1008.32
2018-02-13T03:51:29.594Z,1008.35
2018-02-13T03:51:55.704Z,1008.32
2018-02-13T03:52:21.801Z,1008.3
2018-02-13T03:52:47.900Z,1008.32
2018-02-13T03:53:13.999Z,1008.32
2018-02-13T03:53:40.093Z,1008.27
2018-02-13T03:54:06.196Z,1008.29
2018-02-13T03:54:32.292Z,1008.29
2018-02-13T03:54:58.385Z,1008.24
2018-02-13T03:55:24.487Z,1008.26
2018-02-13T03:55:50.588Z,1008.25
2018-02-13T03:56:16.685Z,1008.27
2018-02-13T03:56:42.786Z,1008.24
2018-02-13T03:57:08.902Z,1008.25
2018-02-13T03:57:35.002Z,1008.25
2018-02-13T03:58:01.102Z,1008.23
2018-02-13T03:58:27.193Z,1008.25
2018-02-13T03:58:53.293Z,1008.23
2018-02-13T03:59:19.393Z,1008.24
2018-02-13T03:59:45.510Z,1008.28
2018-02-13T04:00:11.628Z,1008.2
2018-02-13T04:00:37.733Z,1008.27
2018-02-13T04:01:03.829Z,1008.24
2018-02-13T04:01:29.935Z,1008.24
2018-02-13T04:01:56.028Z,1008.24
2018-02-13T04:02:22.126Z,1008.21
2018-02-13T04:02:48.220Z,1008.2
2018-02-13T04:03:14.325Z,1008.19
2018-02-13T04:03:40.445Z,1008.19
2018-02-13T04:04:06.536Z,1008.2
2018-02-13T04:04:32.641Z,1008.2
2018-02-13T04:04:58.741Z,1008.2
2018-02-13T04:05:24.839Z,1008.17
2018-02-13T04:05:50.948Z,1008.12
2018-02-13T04:06:17.041Z,1008.19
2018-02-13T04:06:43.137Z,1008.15
2018-02-13T04:07:09.240Z,1008.16
2018-02-13T04:07:35.339Z,1008.13
2018-02-13T04:08:01.434Z,1008.16
2018-02-13T04:08:27.533Z,1008.15
2018-02-13T04:08:53.632Z,1008.15
2018-02-13T04:09:19.749Z,1008.14
2018-02-13T04:09:45.851Z,1008.13
2018-02-13T04:10:11.955Z,1008.13
2018-02-13T04:10:38.048Z,1008.11
2018-02-13T04:11:04.148Z,1008.12
2018-02-13T04:11:30.267Z,1008.09
2018-02-13T04:11:56.360Z,1008.1
2018-02-13T04:12:22.459Z,1008.09
2018-02-13T04:12:48.560Z,1008.12
2018-02-13T04:13:14.664Z,1008.1
2018-02-13T04:13:40.765Z,1008.11
2018-02-13T04:14:06.866Z,1008.1
2018-02-13T04:14:32.967Z,1008.08
2018-02-13T04:14:59.062Z,1008.09
2018-02-13T04:15:25.171Z,1008.09
2018-02-13T04:15:51.263Z,1008.09
2018-02-13T04:16:17.365Z,1008.13
2018-02-13T04:16:43.463Z,1008.09
2018-02-13T04:17:09.595Z,1008.09
2018-02-13T04:17:35.659Z,1008.07
2018-02-13T04:18:01.757Z,1008.11
2018-02-13T04:18:27.847Z,1008.1
2018-02-13T04:18:53.946Z,1008.07
2018-02-13T04:19:20.068Z,1008.06
2018-02-13T04:19:46.157Z,1008.08
2018-02-13T04:20:12.257Z,1008.1
2018-02-13T04:20:38.360Z,1008.13
2018-02-13T04:21:04.481Z,1008.09
2018-02-13T04:21:30.601Z,1008.05
2018-02-13T04:21:56.697Z,1008.07
2018-02-13T04:22:22.798Z,1008.02
2018-02-13T04:22:48.892Z,1008.06
2018-02-13T04:23:14.989Z,1008.02
2018-02-13T04:23:41.094Z,1008.05
2018-02-13T04:24:07.212Z,1008.07
2018-02-13T04:24:33.306Z,1008.08
2018-02-13T04:24:59.401Z,1008.04
2018-02-13T04:25:25.507Z,1008.02
2018-02-13T04:25:51.601Z,1008
2018-02-13T04:26:17.699Z,1007.99
2018-02-13T04:26:43.798Z,1008
2018-02-13T04:27:09.899Z,1008.01
2018-02-13T04:27:36.003Z,1008
2018-02-13T04:28:02.100Z,1007.99
2018-02-13T04:28:28.193Z,1008.02
2018-02-13T04:28:54.328Z,1008.01
2018-02-13T04:29:20.425Z,1007.99
2018-02-13T04:29:46.524Z,1007.98
2018-02-13T04:30:12.630Z,1008.01
2018-02-13T04:30:38.739Z,1007.92
2018-02-13T04:31:04.839Z,1007.99
2018-02-13T04:31:30.945Z,1008.04
2018-02-13T04:31:57.041Z,1007.99
2018-02-13T04:32:23.145Z,1007.97
2018-02-13T04:32:49.256Z,1007.99
2018-02-13T04:33:15.359Z,1007.98
2018-02-13T04:33:41.458Z,1007.96
2018-02-13T04:34:07.574Z,1007.95
2018-02-13T04:34:33.676Z,1008.03
2018-02-13T04:34:59.771Z,1007.95
2018-02-13T04:35:25.872Z,1007.97
2018-02-13T04:35:51.966Z,1007.97
2018-02-13T04:36:18.064Z,1007.98
2018-02-13T04:36:44.162Z,1008.02
2018-02-13T04:37:10.261Z,1007.98
2018-02-13T04:37:36.368Z,1008.04
2018-02-13T04:38:02.461Z,1008.09
2018-02-13T04:38:28.560Z,1008.03
2018-02-13T04:38:54.657Z,1008.06
2018-02-13T04:39:20.775Z,1008.1
2018-02-13T04:39:46.873Z,1008.05
2018-02-13T04:40:12.974Z,1008.06
2018-02-13T04:40:39.080Z,1008.08
2018-02-13T04:41:05.169Z,1008.01
2018-02-13T04:41:31.271Z,1008.01
2018-02-13T04:41:57.370Z,1008.04
2018-02-13T04:42:23.467Z,1008.01
2018-02-13T04:42:49.566Z,1008.05
2018-02-13T04:43:15.662Z,1008.05
2018-02-13T04:43:41.762Z,1008.03
2018-02-13T04:44:07.870Z,1008
2018-02-13T04:44:33.972Z,1008.04
2018-02-13T04:45:00.075Z,1008.09
2018-02-13T04:45:26.175Z,1008.04
2018-02-13T04:45:52.270Z,1008.01
2018-02-13T04:46:18.365Z,1007.98
2018-02-13T04:46:44.461Z,1008.03
2018-02-13T04:47:10.582Z,1008.01
2018-02-13T04:47:36.684Z,1008.07
2018-02-13T04:48:02.782Z,1008.06
2018-02-13T04:48:28.882Z,1008.02
2018-02-13T04:48:54.976Z,1008.06
2018-02-13T04:49:21.081Z,1008.03
2018-02-13T04:49:47.179Z,1008.04
2018-02-13T04:50:13.281Z,1008.04
2018-02-13T04:50:39.378Z,1007.99
2018-02-13T04:51:05.472Z,1008.05
2018-02-13T04:51:31.573Z,1008.04
2018-02-13T04:51:57.676Z,1008.06
2018-02-13T04:52:23.771Z,1008.05
2018-02-13T04:52:49.878Z,1008.06
2018-02-13T04:53:15.971Z,1008.03
2018-02-13T04:53:42.075Z,1008.05
2018-02-13T04:54:08.186Z,1008.07
2018-02-13T04:54:34.283Z,1008.04
2018-02-13T04:55:00.385Z,1008.05
2018-02-13T04:55:26.484Z,1008.02
2018-02-13T04:55:52.578Z,1008.04
2018-02-13T04:56:18.676Z,1008.03
2018-02-13T04:56:44.777Z,1008.01
2018-02-13T04:57:10.882Z,1008.03
2018-02-13T04:57:36.976Z,1008.01
2018-02-13T04:58:03.084Z,1007.98
2018-02-13T04:58:29.181Z,1008.04
2018-02-13T04:58:55.295Z,1007.99
2018-02-13T04:59:21.393Z,1008.03
2018-02-13T04:59:47.492Z,1008.01
2018-02-13T05:00:13.588Z,1008.04
2018-02-13T05:00:39.689Z,1008.04
2018-02-13T05:01:05.788Z,1007.96
2018-02-13T05:01:31.890Z,1008.03
2018-02-13T05:01:57.983Z,1008.02
2018-02-13T05:02:24.081Z,1008.02
2018-02-13T05:02:50.182Z,1008.01
2018-02-13T05:03:16.277Z,1007.95
2018-02-13T05:03:42.375Z,1007.98
2018-02-13T05:04:08.490Z,1007.97
2018-02-13T05:04:34.588Z,1007.96
2018-02-13T05:05:00.695Z,1007.95
2018-02-13T05:05:26.790Z,1007.94
2018-02-13T05:05:52.888Z,1007.94
2018-02-13T05:06:18.999Z,1007.95
2018-02-13T05:06:45.113Z,1007.95
2018-02-13T05:07:11.208Z,1007.93
2018-02-13T05:07:37.316Z,1007.93
2018-02-13T05:08:03.413Z,1007.94
2018-02-13T05:08:29.508Z,1007.97
2018-02-13T05:08:55.615Z,1007.95
2018-02-13T05:09:21.714Z,1007.97
2018-02-13T05:09:47.814Z,1007.99
2018-02-13T05:10:13.930Z,1007.98
2018-02-13T05:10:40.010Z,1007.95
2018-02-13T05:11:06.106Z,1007.94
2018-02-13T05:11:32.205Z,1007.94
2018-02-13T05:11:58.302Z,1007.92
2018-02-13T05:12:24.404Z,1007.94
2018-02-13T05:12:50.515Z,1007.94
2018-02-13T05:13:16.604Z,1007.88
2018-02-13T05:13:42.703Z,1007.93
2018-02-13T05:14:08.806Z,1007.93
2018-02-13T05:14:34.907Z,1007.92
2018-02-13T05:15:01.025Z,1007.91
2018-02-13T05:15:27.142Z,1007.91
2018-02-13T05:15:53.242Z,1007.89
2018-02-13T05:16:19.337Z,1007.92
2018-02-13T05:16:45.440Z,1007.9